Time;durP1;ratioP1;P1;durP2;ratioP2;P2;SDS_P1;SDS_P2;PMS_P1;PMS_P2;Temp;Humidity;BMP_temperature;BMP_pressure;BME280_temperature;BME280_humidity;BME280_pressure;Samples;Min_cycle;Max_cycle;Signal;HPM_P1;HPM_P2
2021/12/14 00:00:24;;;;;;;47.67;7.50;;;2.60;99.90;;;;;;4972774;28;20027;-80
2021/12/14 00:02:51;;;;;;;32.13;6.07;;;2.50;99.90;;;;;;4972845;28;20027;-80
2021/12/14 00:05:19;;;;;;;28.53;6.70;;;2.50;99.90;;;;;;4972797;28;20026;-80
2021/12/14 00:07:45;;;;;;;41.83;6.43;;;2.50;99.90;;;;;;4972780;28;20135;-80
2021/12/14 00:10:42;;;;;;;23.37;6.20;;;2.40;99.90;;;;;;4972497;28;20102;-80
2021/12/14 00:13:23;;;;;;;17.37;6.00;;;2.40;99.90;;;;;;4972255;28;20042;-80
2021/12/14 00:15:49;;;;;;;31.03;6.27;;;2.40;99.90;;;;;;4972537;28;20026;-80
2021/12/14 00:18:15;;;;;;;27.30;5.90;;;2.40;99.90;;;;;;4971863;28;20023;-80
2021/12/14 00:20:48;;;;;;;33.50;7.20;;;2.40;99.90;;;;;;4955121;28;20528;-80
2021/12/14 00:25:50;;;;;;;36.60;7.33;;;2.30;99.90;;;;;;4972385;28;20120;-80
2021/12/14 00:28:19;;;;;;;34.33;7.40;;;2.30;99.90;;;;;;4972448;28;20073;-80
2021/12/14 00:30:46;;;;;;;24.43;6.53;;;2.30;99.90;;;;;;4955074;28;20392;-80
2021/12/14 00:33:15;;;;;;;26.40;7.20;;;2.30;99.90;;;;;;4955035;28;20061;-80
2021/12/14 00:35:44;;;;;;;44.00;7.47;;;2.30;99.90;;;;;;4955109;28;20041;-80
2021/12/14 00:38:14;;;;;;;20.57;6.50;;;2.30;99.90;;;;;;4954962;28;20419;-80
2021/12/14 00:40:43;;;;;;;45.83;6.63;;;2.20;99.90;;;;;;4971671;28;20031;-80
2021/12/14 00:43:10;;;;;;;36.90;6.67;;;2.20;99.90;;;;;;4972481;28;20029;-80
2021/12/14 00:45:39;;;;;;;24.97;5.70;;;2.20;99.90;;;;;;4972272;28;20027;-80
2021/12/14 00:48:07;;;;;;;36.20;5.37;;;2.20;99.90;;;;;;4972117;28;20333;-80
2021/12/14 00:50:33;;;;;;;38.97;5.40;;;2.10;99.90;;;;;;4971915;28;20038;-79
2021/12/14 00:52:59;;;;;;;50.20;6.17;;;2.10;99.90;;;;;;4971370;28;20038;-81
2021/12/14 00:55:30;;;;;;;84.77;6.20;;;2.00;99.90;;;;;;4971440;28;20023;-81
2021/12/14 00:57:59;;;;;;;30.17;5.83;;;2.00;99.90;;;;;;4971160;28;20027;-81
2021/12/14 01:00:29;;;;;;;14.03;4.97;;;2.00;99.90;;;;;;4969953;28;20439;-81
2021/12/14 01:02:55;;;;;;;60.13;5.80;;;2.00;99.90;;;;;;4971023;28;20011;-81
2021/12/14 01:05:31;;;;;;;44.43;5.10;;;2.00;99.90;;;;;;4971285;28;20031;-81
2021/12/14 01:07:57;;;;;;;11.73;4.80;;;2.00;99.90;;;;;;4971018;28;20101;-81
2021/12/14 01:10:34;;;;;;;61.03;5.67;;;2.00;99.90;;;;;;4971185;28;20027;-81
2021/12/14 01:13:03;;;;;;;16.60;5.13;;;1.90;99.90;;;;;;4970990;28;20049;-81
2021/12/14 01:21:43;;;;;;;20.87;4.27;;;1.80;99.90;;;;;;4971316;28;20122;-81
2021/12/14 01:24:23;;;;;;;21.83;4.28;;;1.80;99.90;;;;;;4970997;28;20023;-81
2021/12/14 01:26:49;;;;;;;11.97;3.80;;;1.80;99.90;;;;;;4953479;28;20541;-81
2021/12/14 01:29:17;;;;;;;21.13;4.00;;;1.70;99.90;;;;;;4971179;28;20058;-81
2021/12/14 01:31:44;;;;;;;14.77;3.57;;;1.70;99.90;;;;;;4971077;28;20077;-81
2021/12/14 01:34:19;;;;;;;12.60;3.90;;;1.70;99.90;;;;;;4971145;28;20026;-81
2021/12/14 01:36:49;;;;;;;11.40;3.92;;;1.70;99.90;;;;;;4971076;28;20030;-81
2021/12/14 01:42:37;;;;;;;47.23;5.43;;;1.70;99.90;;;;;;4970153;28;20041;-81
2021/12/14 01:45:12;;;;;;;22.80;4.75;;;1.70;99.90;;;;;;4970622;28;20376;-81
2021/12/14 01:47:45;;;;;;;10.40;4.45;;;1.60;99.90;;;;;;4953261;28;20031;-80
2021/12/14 01:50:19;;;;;;;22.50;5.27;;;1.70;99.90;;;;;;4970289;28;20031;-81
2021/12/14 01:52:45;;;;;;;16.83;4.70;;;1.70;99.90;;;;;;4970486;28;20027;-81
2021/12/14 01:55:21;;;;;;;15.13;4.73;;;1.70;99.90;;;;;;4970346;28;20037;-81
2021/12/14 01:57:47;;;;;;;19.90;5.03;;;1.60;99.90;;;;;;4969847;28;20033;-81
2021/12/14 02:00:21;;;;;;;22.63;5.30;;;1.60;99.90;;;;;;4969208;28;20031;-81
2021/12/14 02:02:48;;;;;;;18.55;5.25;;;1.60;99.90;;;;;;4951895;28;20031;-81
2021/12/14 02:05:28;;;;;;;15.27;4.97;;;1.60;99.90;;;;;;4970294;28;20039;-81
2021/12/14 02:07:56;;;;;;;13.97;4.60;;;1.60;99.90;;;;;;4970218;28;20375;-81
2021/12/14 02:10:26;;;;;;;13.23;3.93;;;1.60;99.90;;;;;;4952537;28;20045;-81
2021/12/14 02:12:52;;;;;;;10.77;4.37;;;1.60;99.90;;;;;;4969310;28;20057;-81
2021/12/14 02:15:26;;;;;;;8.63;3.60;;;1.70;99.90;;;;;;4970019;28;20379;-81
2021/12/14 02:17:54;;;;;;;15.57;3.70;;;1.60;99.90;;;;;;4970176;28;20122;-81
2021/12/14 02:20:25;;;;;;;8.93;3.93;;;1.60;99.90;;;;;;4970020;28;20080;-81
2021/12/14 02:22:51;;;;;;;8.27;3.97;;;1.60;99.90;;;;;;4952797;28;20076;-81
2021/12/14 02:25:18;;;;;;;23.97;4.30;;;1.60;99.90;;;;;;4970229;28;20476;-81
2021/12/14 02:27:50;;;;;;;20.80;4.03;;;1.60;99.90;;;;;;4970243;28;20093;-81
2021/12/14 02:30:21;;;;;;;15.57;4.40;;;1.60;99.90;;;;;;4952938;28;20479;-81
2021/12/14 02:32:50;;;;;;;11.27;4.93;;;1.60;99.90;;;;;;4970277;28;20030;-81
2021/12/14 02:35:21;;;;;;;19.20;5.30;;;1.60;99.90;;;;;;4970279;28;20033;-81
2021/12/14 02:37:54;;;;;;;15.23;4.73;;;1.70;99.90;;;;;;4970000;28;20465;-81
2021/12/14 02:40:53;;;;;;;12.43;5.10;;;1.70;99.90;;;;;;4969570;28;20037;-81
2021/12/14 02:43:17;;;;;;;15.87;5.03;;;1.70;99.90;;;;;;4969635;28;20038;-81
2021/12/14 02:45:42;;;;;;;17.67;5.10;;;1.70;99.90;;;;;;4969849;28;20399;-81
2021/12/14 02:48:10;;;;;;;18.27;4.30;;;1.70;99.90;;;;;;4969876;28;20475;-81
2021/12/14 02:50:40;;;;;;;28.33;4.50;;;1.70;99.90;;;;;;4970122;28;20027;-81
2021/12/14 02:53:08;;;;;;;18.57;4.40;;;1.70;99.90;;;;;;4952303;28;20061;-81
2021/12/14 02:55:34;;;;;;;17.97;4.83;;;1.70;99.90;;;;;;4970038;28;20065;-82
2021/12/14 02:58:05;;;;;;;22.27;4.80;;;1.70;99.90;;;;;;4969699;28;20026;-81
2021/12/14 03:00:47;;;;;;;35.80;5.57;;;1.70;99.90;;;;;;4969848;28;20027;-82
2021/12/14 03:03:16;;;;;;;24.70;4.20;;;1.70;99.90;;;;;;4970119;28;20343;-81
2021/12/14 03:05:45;;;;;;;34.70;5.10;;;1.70;99.90;;;;;;4969827;28;20023;-82
2021/12/14 03:08:24;;;;;;;24.23;5.37;;;1.60;99.90;;;;;;4969980;28;20027;-81
2021/12/14 03:11:00;;;;;;;71.83;5.37;;;1.60;99.90;;;;;;4969777;28;20034;-82
2021/12/14 03:13:34;;;;;;;40.30;4.97;;;1.70;99.90;;;;;;4969546;28;20092;-82
2021/12/14 03:16:03;;;;;;;10.43;4.03;;;1.70;99.90;;;;;;4969409;28;20031;-81
2021/12/14 03:18:34;;;;;;;20.13;3.80;;;1.60;99.90;;;;;;4969238;28;20549;-81
2021/12/14 03:21:07;;;;;;;28.53;4.43;;;1.60;99.90;;;;;;4969382;28;20019;-81
2021/12/14 03:23:43;;;;;;;44.40;4.63;;;1.60;99.90;;;;;;4969597;28;20022;-81
2021/12/14 03:26:13;;;;;;;105.77;6.10;;;1.60;99.90;;;;;;4955596;28;20034;-81
2021/12/14 03:28:40;;;;;;;26.10;4.40;;;1.60;99.90;;;;;;4972718;28;20015;-81
2021/12/14 03:31:22;;;;;;;33.17;4.53;;;1.50;99.90;;;;;;4972625;28;20069;-81
2021/12/14 03:34:08;;;;;;;23.37;4.70;;;1.50;99.90;;;;;;4972707;28;20022;-81
2021/12/14 03:36:44;;;;;;;35.40;4.80;;;1.50;99.90;;;;;;4972551;28;20064;-81
2021/12/14 03:39:15;;;;;;;34.53;5.40;;;1.50;99.90;;;;;;4972829;28;20058;-81
2021/12/14 03:42:05;;;;;;;27.83;4.57;;;1.50;99.90;;;;;;4971861;28;20023;-81
2021/12/14 03:44:35;;;;;;;36.57;4.27;;;1.50;99.90;;;;;;4972439;28;20027;-81
2021/12/14 03:47:08;;;;;;;17.40;4.43;;;1.50;99.90;;;;;;4972392;28;20027;-81
2021/12/14 03:49:41;;;;;;;30.43;5.33;;;1.50;99.90;;;;;;4951826;28;20081;-81
2021/12/14 03:52:10;;;;;;;25.07;5.57;;;1.50;99.90;;;;;;4953641;28;20031;-81
2021/12/14 03:54:36;;;;;;;47.40;6.20;;;1.50;99.90;;;;;;4953526;28;20401;-81
2021/12/14 03:57:02;;;;;;;18.87;5.00;;;1.60;99.90;;;;;;4953214;28;20035;-81
2021/12/14 03:59:29;;;;;;;106.83;7.50;;;1.60;99.90;;;;;;5019590;28;20058;-81
2021/12/14 04:01:57;;;;;;;27.30;5.03;;;1.60;99.90;;;;;;4953009;29;20030;-81
2021/12/14 04:04:29;;;;;;;59.57;5.63;;;1.60;99.90;;;;;;4951716;28;20027;-81
2021/12/14 04:06:57;;;;;;;40.13;5.27;;;1.60;99.90;;;;;;4951826;28;20072;-81
2021/12/14 04:09:27;;;;;;;32.53;5.40;;;1.60;99.90;;;;;;4952864;28;20024;-81
2021/12/14 04:11:54;;;;;;;33.03;5.70;;;1.60;99.90;;;;;;5019471;28;20785;-81
2021/12/14 04:14:20;;;;;;;47.60;5.30;;;1.70;99.90;;;;;;4952698;28;20051;-81
2021/12/14 04:16:50;;;;;;;80.67;6.90;;;1.60;99.90;;;;;;4952532;29;20031;-81
2021/12/14 04:19:21;;;;;;;51.50;6.00;;;1.60;99.90;;;;;;4953049;28;20027;-81
2021/12/14 04:21:48;;;;;;;77.17;6.93;;;1.70;99.90;;;;;;4952676;29;20065;-81
2021/12/14 04:24:20;;;;;;;59.60;6.27;;;1.60;99.90;;;;;;4952615;28;20028;-81
2021/12/14 04:26:46;;;;;;;101.63;7.53;;;1.70;99.90;;;;;;4952533;29;20536;-80
2021/12/14 04:29:14;;;;;;;37.43;5.83;;;1.70;99.90;;;;;;4952620;29;20031;-80
2021/12/14 04:31:43;;;;;;;24.83;6.03;;;1.70;99.90;;;;;;4952496;29;20028;-80
2021/12/14 04:34:09;;;;;;;31.00;5.37;;;1.70;99.90;;;;;;4952446;28;20055;-80
2021/12/14 04:36:36;;;;;;;53.83;6.57;;;1.70;99.90;;;;;;4952229;28;20031;-81
2021/12/14 04:39:36;;;;;;;61.80;6.70;;;1.60;99.90;;;;;;4952513;28;20042;-81
2021/12/14 04:53:42;;;;;;;23.57;5.17;;;1.60;99.90;;;;;;4952323;29;20434;-81
2021/12/14 04:56:12;;;;;;;54.47;6.93;;;1.60;99.90;;;;;;4952223;29;20455;-81
2021/12/14 04:58:43;;;;;;;15.93;5.90;;;1.50;99.90;;;;;;4952032;28;20104;-81
2021/12/14 05:01:10;;;;;;;30.03;6.80;;;1.50;99.90;;;;;;4952007;28;20058;-81
2021/12/14 05:03:44;;;;;;;31.77;7.17;;;1.50;99.90;;;;;;4951839;28;20024;-81
2021/12/14 05:06:20;;;;;;;45.47;7.17;;;1.50;99.90;;;;;;4951858;29;20030;-81
2021/12/14 05:11:21;;;;;;;28.27;6.17;;;1.50;99.90;;;;;;4951715;28;20357;-81
2021/12/14 05:13:59;;;;;;;40.47;5.97;;;1.40;99.90;;;;;;4934838;28;20082;-81
2021/12/14 05:16:27;;;;;;;79.73;6.73;;;1.40;99.90;;;;;;4951933;28;20443;-81
2021/12/14 05:19:00;;;;;;;18.03;6.20;;;1.40;99.90;;;;;;4951169;28;20368;-80
2021/12/14 05:21:47;;;;;;;24.37;5.73;;;1.40;99.90;;;;;;4950856;28;20066;-80
2021/12/14 05:24:18;;;;;;;35.23;6.43;;;1.30;99.90;;;;;;4950741;29;20391;-80
2021/12/14 05:26:53;;;;;;;20.77;5.53;;;1.30;99.90;;;;;;4933408;28;20106;-80
2021/12/14 05:29:25;;;;;;;19.83;6.45;;;1.30;99.90;;;;;;5016862;28;20108;-80
2021/12/14 05:31:52;;;;;;;20.50;6.57;;;1.30;99.90;;;;;;4934363;28;20169;-79
2021/12/14 05:34:21;;;;;;;24.43;7.17;;;1.20;99.90;;;;;;4952179;28;20027;-79
2021/12/14 05:36:47;;;;;;;43.97;7.23;;;1.20;99.90;;;;;;4950569;28;20028;-79
2021/12/14 05:39:44;;;;;;;28.33;6.23;;;1.20;99.90;;;;;;4950316;29;20027;-79
2021/12/14 05:44:56;;;;;;;34.20;5.90;;;1.20;99.90;;;;;;4950372;29;20034;-78
2021/12/14 05:47:22;;;;;;;41.90;6.77;;;1.10;99.90;;;;;;4949619;29;20456;-78
2021/12/14 05:49:49;;;;;;;87.83;7.70;;;1.10;99.90;;;;;;4950435;29;20039;-77
2021/12/14 05:52:24;;;;;;;54.77;6.90;;;1.00;99.90;;;;;;4950398;29;20031;-78
2021/12/14 05:54:50;;;;;;;;;;;1.00;99.90;;;;;;4950796;29;20023;-78
2021/12/14 05:57:19;;;;;;;65.20;5.97;;;1.00;99.90;;;;;;4950472;28;19917;-78
2021/12/14 05:59:46;;;;;;;39.90;4.87;;;1.00;99.90;;;;;;4950122;29;20452;-80
2021/12/14 06:02:12;;;;;;;13.90;5.40;;;0.90;99.90;;;;;;4949714;28;20028;-80
2021/12/14 06:04:42;;;;;;;19.90;5.00;;;0.90;99.90;;;;;;4948617;29;20031;-80
2021/12/14 06:07:10;;;;;;;52.90;6.33;;;0.90;99.90;;;;;;4949859;28;20035;-79
2021/12/14 06:09:40;;;;;;;72.50;6.97;;;0.80;99.90;;;;;;4950041;28;20102;-80
2021/12/14 06:12:16;;;;;;;10.00;5.57;;;0.80;99.90;;;;;;4949781;28;20404;-79
2021/12/14 06:14:51;;;;;;;92.20;6.90;;;0.80;99.90;;;;;;4950025;28;20050;-78
2021/12/14 06:17:25;;;;;;;36.40;6.90;;;0.80;99.90;;;;;;4948468;28;20027;-77
2021/12/14 06:20:00;;;;;;;17.65;6.28;;;0.70;99.90;;;;;;4948525;28;20035;-78
2021/12/14 06:22:26;;;;;;;42.60;6.38;;;0.70;99.90;;;;;;4949822;28;20027;-77
2021/12/14 06:24:59;;;;;;;41.67;6.63;;;0.70;99.90;;;;;;4949820;28;20027;-78
2021/12/14 06:27:28;;;;;;;16.07;5.70;;;0.70;99.90;;;;;;4949729;28;20031;-78
2021/12/14 06:30:22;;;;;;;24.37;5.47;;;0.60;99.90;;;;;;4949683;28;20035;-77
2021/12/14 06:32:58;;;;;;;45.60;6.10;;;0.60;99.90;;;;;;4950478;28;20053;-77
2021/12/14 06:35:33;;;;;;;15.50;5.90;;;0.60;99.90;;;;;;4950066;28;20046;-78
2021/12/14 06:40:44;;;;;;;44.03;5.93;;;0.60;99.90;;;;;;4966687;28;20043;-78
2021/12/14 06:43:15;;;;;;;35.57;6.87;;;0.60;99.90;;;;;;4973735;28;20432;-77
2021/12/14 06:45:55;;;;;;;26.97;5.87;;;0.60;99.90;;;;;;4972776;28;20054;-72
2021/12/14 06:48:33;;;;;;;13.07;5.30;;;0.60;99.90;;;;;;4954843;28;20037;-78
2021/12/14 06:51:10;;;;;;;45.50;5.90;;;0.60;99.90;;;;;;4972001;28;20030;-77
2021/12/14 06:53:40;;;;;;;63.10;6.40;;;0.60;99.90;;;;;;4972741;28;20172;-77
2021/12/14 06:56:10;;;;;;;65.57;6.70;;;0.60;99.90;;;;;;4972540;28;20071;-77
2021/12/14 06:58:45;;;;;;;17.17;5.60;;;0.60;99.90;;;;;;4974367;28;20034;-77
2021/12/14 07:01:15;;;;;;;26.17;5.60;;;0.60;99.90;;;;;;4975647;28;20111;-77
2021/12/14 07:03:49;;;;;;;62.97;6.47;;;0.60;99.90;;;;;;4975212;28;20049;-77
2021/12/14 07:06:47;;;;;;;29.87;5.87;;;0.60;99.90;;;;;;4975747;28;20720;-77
2021/12/14 07:09:17;;;;;;;33.67;6.27;;;0.60;99.90;;;;;;4976209;28;20046;-77
2021/12/14 07:11:47;;;;;;;44.70;6.20;;;0.60;99.90;;;;;;4975056;28;20042;-77
2021/12/14 07:14:42;;;;;;;43.37;6.27;;;0.60;99.90;;;;;;4975255;28;20046;-77
2021/12/14 07:17:10;;;;;;;49.17;5.80;;;0.60;99.90;;;;;;4975278;28;20035;-77
2021/12/14 07:20:10;;;;;;;21.10;5.50;;;0.60;99.90;;;;;;4974956;28;20027;-77
2021/12/14 07:22:40;;;;;;;41.67;6.10;;;0.60;99.90;;;;;;4975765;28;20421;-77
2021/12/14 07:25:28;;;;;;;31.27;5.20;;;0.70;99.90;;;;;;4958250;28;20030;-77
2021/12/14 07:27:58;;;;;;;35.43;6.30;;;0.60;99.90;;;;;;4974781;28;20030;-77
2021/12/14 07:30:52;;;;;;;32.87;5.73;;;0.70;99.90;;;;;;4974348;28;20046;-79
2021/12/14 07:33:26;;;;;;;11.37;5.43;;;0.70;99.90;;;;;;4964708;28;20144;-80
2021/12/14 07:36:05;;;;;;;38.67;5.72;;;0.70;99.90;;;;;;4974929;28;20035;-80
2021/12/14 07:38:37;;;;;;;13.30;5.13;;;0.80;99.90;;;;;;4975279;28;20125;-79
2021/12/14 07:41:26;;;;;;;26.33;5.33;;;0.80;99.90;;;;;;4974931;28;20038;-80
2021/12/14 07:44:00;;;;;;;6.97;5.27;;;0.80;99.90;;;;;;4968766;28;20031;-80
2021/12/14 07:46:39;;;;;;;9.10;5.60;;;0.90;99.90;;;;;;4972250;28;20027;-80
2021/12/14 07:49:25;;;;;;;9.33;5.70;;;1.00;99.90;;;;;;4972777;28;20112;-80
2021/12/14 07:51:52;;;;;;;;;;;1.00;99.90;;;;;;4971846;28;20080;-80
2021/12/14 07:54:22;;;;;;;14.37;6.00;;;1.10;99.90;;;;;;4970860;28;20407;-80
2021/12/14 07:57:28;;;;;;;23.87;6.30;;;1.10;99.90;;;;;;4972362;28;20106;-80
2021/12/14 08:00:03;;;;;;;28.77;6.97;;;1.10;99.90;;;;;;4972016;28;20239;-80
2021/12/14 08:02:38;;;;;;;9.77;6.47;;;1.00;99.90;;;;;;4955222;28;20038;-80
2021/12/14 08:05:16;;;;;;;27.52;8.75;;;1.10;99.90;;;;;;4971598;28;20409;-80
2021/12/14 08:07:49;;;;;;;12.23;6.77;;;1.10;99.90;;;;;;4954015;28;20178;-80
2021/12/14 08:10:24;;;;;;;39.67;13.33;;;1.10;99.90;;;;;;4971962;28;20079;-80
2021/12/14 08:13:02;;;;;;;;;;;1.20;99.90;;;;;;4953399;28;20050;-80
2021/12/14 08:15:43;;;;;;;12.70;7.03;;;1.20;99.90;;;;;;5038474;28;19917;-80
2021/12/14 08:18:28;;;;;;;25.93;6.70;;;1.20;99.90;;;;;;4971874;28;20121;-80
2021/12/14 08:20:58;;;;;;;22.90;7.25;;;1.20;99.90;;;;;;4972732;28;20046;-80
2021/12/14 08:23:28;;;;;;;21.17;14.87;;;1.30;99.90;;;;;;4972879;28;20041;-80
2021/12/14 08:25:59;;;;;;;13.00;9.67;;;1.30;99.90;;;;;;4972497;28;20811;-80
2021/12/14 08:28:25;;;;;;;28.00;7.50;;;1.40;99.90;;;;;;4973243;28;20081;-80
2021/12/14 08:31:09;;;;;;;21.17;8.00;;;1.40;99.90;;;;;;4973137;28;20032;-80
2021/12/14 08:33:35;;;;;;;24.27;7.30;;;1.50;99.90;;;;;;4972400;28;20644;-80
2021/12/14 08:36:04;;;;;;;12.67;7.10;;;1.50;99.90;;;;;;4973737;28;20103;-81
2021/12/14 08:38:33;;;;;;;15.03;7.37;;;1.60;99.90;;;;;;4971745;28;20065;-80
2021/12/14 08:41:12;;;;;;;24.43;7.50;;;1.70;99.90;;;;;;4971891;28;20485;-81
2021/12/14 08:43:47;;;;;;;14.27;7.17;;;1.70;99.90;;;;;;4970857;28;20425;-80
2021/12/14 08:46:17;;;;;;;15.10;8.20;;;1.70;99.90;;;;;;4972297;28;20149;-80
2021/12/14 08:48:48;;;;;;;21.10;7.63;;;1.80;99.90;;;;;;4952885;28;20031;-80
2021/12/14 08:51:25;;;;;;;11.60;7.20;;;1.90;99.90;;;;;;4970986;28;20126;-81
2021/12/14 08:53:58;;;;;;;10.97;7.80;;;1.90;99.90;;;;;;4971793;28;20113;-80
2021/12/14 08:56:28;;;;;;;16.67;6.63;;;2.00;99.90;;;;;;4972792;28;20472;-81
2021/12/14 08:58:54;;;;;;;20.20;6.33;;;2.00;99.90;;;;;;4970828;28;20360;-81
2021/12/14 09:01:25;;;;;;;7.83;6.00;;;2.00;99.90;;;;;;4971630;28;20030;-81
2021/12/14 09:03:57;;;;;;;7.13;5.67;;;2.10;99.90;;;;;;4970064;28;20026;-80
2021/12/14 09:06:35;;;;;;;8.13;5.57;;;2.10;99.90;;;;;;4971111;28;20431;-81
2021/12/14 09:09:05;;;;;;;8.30;6.27;;;2.10;99.90;;;;;;4971718;28;20038;-80
2021/12/14 09:11:33;;;;;;;6.43;5.17;;;2.20;99.90;;;;;;4971061;28;20045;-81
2021/12/14 09:13:59;;;;;;;7.03;5.10;;;2.20;99.90;;;;;;4971435;28;20049;-80
2021/12/14 09:16:28;;;;;;;6.23;5.13;;;2.20;99.90;;;;;;4971785;28;20344;-80
2021/12/14 09:19:07;;;;;;;7.83;5.30;;;2.20;99.90;;;;;;4953304;28;20034;-81
2021/12/14 09:21:39;;;;;;;6.03;5.03;;;2.30;99.90;;;;;;4969811;28;20027;-81
2021/12/14 09:24:17;;;;;;;6.97;5.13;;;2.30;99.90;;;;;;4970920;28;20077;-81
2021/12/14 09:26:47;;;;;;;7.77;5.90;;;2.40;99.90;;;;;;4971716;28;20115;-81
2021/12/14 09:29:17;;;;;;;7.47;5.93;;;2.40;99.90;;;;;;4970917;28;20043;-81
2021/12/14 09:31:47;;;;;;;13.03;5.83;;;2.50;99.90;;;;;;4970694;28;20042;-80
2021/12/14 09:34:14;;;;;;;8.40;5.57;;;2.70;99.90;;;;;;4971970;28;20642;-81
2021/12/14 09:36:40;;;;;;;8.13;5.43;;;2.80;99.90;;;;;;5006354;28;20106;-81
2021/12/14 09:39:11;;;;;;;6.53;5.00;;;2.90;99.90;;;;;;4971024;28;20049;-81
2021/12/14 09:41:39;;;;;;;7.73;5.27;;;3.10;99.90;;;;;;4952915;28;20030;-81
2021/12/14 09:44:08;;;;;;;9.83;5.80;;;3.20;99.90;;;;;;4970133;28;20030;-81
2021/12/14 09:46:35;;;;;;;8.10;5.97;;;3.30;99.90;;;;;;4970905;28;20018;-80
2021/12/14 09:49:04;;;;;;;10.60;6.40;;;3.40;99.90;;;;;;4970971;28;20038;-81
2021/12/14 09:51:56;;;;;;;10.03;5.53;;;3.50;99.90;;;;;;4971456;28;20087;-81
2021/12/14 09:54:24;;;;;;;7.33;5.53;;;3.60;99.90;;;;;;4970140;28;20039;-81
2021/12/14 09:57:01;;;;;;;8.90;5.77;;;3.70;99.90;;;;;;4969169;28;20419;-80
2021/12/14 09:59:27;;;;;;;7.63;5.57;;;3.80;99.90;;;;;;4970362;28;20073;-81
2021/12/14 10:02:18;;;;;;;7.23;4.70;;;3.90;99.90;;;;;;4970583;28;20104;-80
2021/12/14 10:04:49;;;;;;;7.93;4.93;;;4.10;99.90;;;;;;4968827;28;20030;-81
2021/12/14 10:07:16;;;;;;;7.03;4.10;;;4.10;99.90;;;;;;4969442;28;20027;-81
2021/12/14 10:09:47;;;;;;;4.53;3.60;;;4.20;99.90;;;;;;4952832;28;20061;-81
2021/12/14 10:14:51;;;;;;;3.97;3.30;;;4.40;99.90;;;;;;4968680;28;20648;-81
2021/12/14 10:17:19;;;;;;;4.70;3.30;;;4.50;99.90;;;;;;4970354;28;20042;-80
2021/12/14 10:19:46;;;;;;;5.37;3.60;;;4.60;99.90;;;;;;4970789;28;20031;-80
2021/12/14 10:22:23;;;;;;;3.53;3.13;;;4.70;99.90;;;;;;4969903;28;20039;-80
2021/12/14 10:24:54;;;;;;;4.20;3.60;;;4.70;99.90;;;;;;4970941;28;20117;-80
2021/12/14 10:27:22;;;;;;;5.40;3.70;;;4.90;99.90;;;;;;4970874;28;20047;-80
2021/12/14 10:29:48;;;;;;;5.37;3.57;;;4.90;99.90;;;;;;4970628;28;20077;-80
2021/12/14 10:32:19;;;;;;;4.57;3.30;;;5.00;99.90;;;;;;4968934;28;20138;-80
2021/12/14 10:34:50;;;;;;;5.03;3.63;;;5.10;99.90;;;;;;4969407;28;20091;-79
2021/12/14 10:37:52;;;;;;;4.87;3.53;;;5.10;99.90;;;;;;4968843;28;20037;-79
2021/12/14 10:43:15;;;;;;;3.87;3.20;;;5.30;99.90;;;;;;4969296;28;20080;-79
2021/12/14 10:45:45;;;;;;;3.80;3.07;;;5.30;99.90;;;;;;4971280;28;20058;-79
2021/12/14 10:48:11;;;;;;;4.10;3.20;;;5.30;99.90;;;;;;4970112;28;20046;-79
2021/12/14 10:50:38;;;;;;;3.60;2.87;;;5.20;99.90;;;;;;4970887;28;20093;-79
2021/12/14 10:53:08;;;;;;;3.73;2.97;;;5.30;99.90;;;;;;4970079;28;20035;-79
2021/12/14 10:55:42;;;;;;;4.13;2.87;;;5.20;99.90;;;;;;4970700;28;20042;-80
2021/12/14 10:58:12;;;;;;;4.60;2.83;;;5.20;99.90;;;;;;4973145;28;20471;-80
2021/12/14 11:00:56;;;;;;;4.27;2.90;;;5.60;99.90;;;;;;4971392;28;20169;-80
2021/12/14 11:03:25;;;;;;;4.57;3.37;;;5.60;99.90;;;;;;4971439;28;20089;-80
2021/12/14 11:05:56;;;;;;;4.37;3.33;;;5.70;99.90;;;;;;4971830;28;20026;-80
2021/12/14 11:08:42;;;;;;;6.67;4.77;;;5.90;99.90;;;;;;4971426;28;20042;-80
2021/12/14 11:11:13;;;;;;;;;;;5.80;99.90;;;;;;4972107;28;21294;-80
2021/12/14 11:13:50;;;;;;;6.67;3.40;;;5.90;99.90;;;;;;4971329;28;19926;-80
2021/12/14 11:16:31;;;;;;;7.03;3.70;;;5.80;99.90;;;;;;4971798;28;20061;-80
2021/12/14 11:19:02;;;;;;;6.07;3.97;;;5.70;99.90;;;;;;4971864;28;20038;-80
2021/12/14 11:21:28;;;;;;;7.73;4.27;;;5.60;99.90;;;;;;4971562;28;20023;-80
2021/12/14 11:23:58;;;;;;;5.87;4.20;;;5.60;99.90;;;;;;4971449;28;20039;-80
2021/12/14 11:26:34;;;;;;;5.70;3.77;;;5.60;99.90;;;;;;4971743;28;20056;-80
2021/12/14 11:29:05;;;;;;;5.27;3.83;;;5.60;99.90;;;;;;4971592;28;20032;-80
2021/12/14 11:31:47;;;;;;;5.33;4.13;;;5.80;99.90;;;;;;4972196;28;20051;-80
2021/12/14 11:34:29;;;;;;;5.27;4.10;;;5.80;99.90;;;;;;4953473;28;20027;-80
2021/12/14 11:37:04;;;;;;;6.53;4.30;;;5.90;99.90;;;;;;4971591;28;20030;-80
2021/12/14 11:39:41;;;;;;;9.03;4.23;;;6.00;99.90;;;;;;4970625;28;20037;-80
2021/12/14 11:42:13;;;;;;;5.87;4.43;;;6.10;99.90;;;;;;4953749;28;20031;-80
2021/12/14 11:44:47;;;;;;;7.30;4.97;;;6.10;99.90;;;;;;4955284;28;20365;-80
2021/12/14 11:50:07;;;;;;;6.40;4.70;;;6.10;99.90;;;;;;4976088;28;20291;-79
2021/12/14 11:52:51;;;;;;;6.77;4.87;;;6.40;99.90;;;;;;4974675;28;20034;-80
2021/12/14 11:55:28;;;;;;;7.70;5.27;;;6.40;99.90;;;;;;4974648;28;20045;-80
2021/12/14 11:58:30;;;;;;;6.80;4.70;;;6.50;99.90;;;;;;4975170;28;20042;-80
2021/12/14 12:01:17;;;;;;;9.13;5.20;;;6.40;99.90;;;;;;4974290;28;20030;-80
2021/12/14 12:04:00;;;;;;;7.10;5.30;;;6.30;99.90;;;;;;4974366;28;20042;-80
2021/12/14 12:09:30;;;;;;;7.77;5.60;;;6.40;99.90;;;;;;4974323;28;20038;-80
2021/12/14 12:12:00;;;;;;;8.63;6.57;;;6.30;99.90;;;;;;4969226;28;20052;-80
2021/12/14 12:14:36;;;;;;;9.17;6.50;;;6.30;99.90;;;;;;4969429;28;20075;-80
2021/12/14 12:17:10;;;;;;;8.85;6.60;;;6.40;99.90;;;;;;4969861;28;20544;-77
2021/12/14 12:19:37;;;;;;;7.50;6.03;;;6.30;99.90;;;;;;4970981;28;20049;-76
2021/12/14 12:22:12;;;;;;;9.90;6.50;;;6.20;99.90;;;;;;4971721;28;20038;-76
2021/12/14 12:24:43;;;;;;;8.27;6.73;;;6.10;99.90;;;;;;4971481;28;20030;-79
2021/12/14 12:27:33;;;;;;;8.83;6.70;;;6.00;99.90;;;;;;4971981;28;20753;-79
2021/12/14 12:30:29;;;;;;;10.13;6.70;;;5.90;99.90;;;;;;4970631;28;20809;-79
2021/12/14 12:32:56;;;;;;;;;;;5.80;99.90;;;;;;4972085;28;20035;-80
2021/12/14 12:35:40;;;;;;;9.53;7.60;;;5.90;99.90;;;;;;4972106;28;19921;-79
2021/12/14 12:38:19;;;;;;;11.90;8.30;;;5.90;99.90;;;;;;4972208;28;20045;-80
2021/12/14 12:40:58;;;;;;;10.77;8.57;;;5.80;99.90;;;;;;4955459;28;20035;-79
2021/12/14 12:43:46;;;;;;;12.00;9.53;;;5.80;99.90;;;;;;4974031;28;20031;-80
2021/12/14 12:46:25;;;;;;;13.50;9.43;;;5.70;99.90;;;;;;4973243;28;20051;-80
2021/12/14 12:48:58;;;;;;;12.40;9.43;;;5.70;99.90;;;;;;4973345;28;20034;-80
2021/12/14 12:51:59;;;;;;;11.17;8.53;;;5.70;99.90;;;;;;4973531;28;20050;-80
2021/12/14 12:54:33;;;;;;;11.07;8.53;;;5.60;99.90;;;;;;4966263;28;20049;-80
2021/12/14 12:57:08;;;;;;;10.77;8.90;;;5.60;99.90;;;;;;4973643;28;20062;-80
2021/12/14 12:59:50;;;;;;;10.88;8.70;;;5.60;99.90;;;;;;4972902;28;20042;-80
2021/12/14 13:02:29;;;;;;;10.50;8.93;;;5.50;99.90;;;;;;4973760;28;20109;-80
2021/12/14 13:05:07;;;;;;;13.00;9.23;;;5.40;99.90;;;;;;4973271;28;20037;-80
2021/12/14 13:07:45;;;;;;;12.77;9.50;;;5.50;99.90;;;;;;4973030;28;20814;-80
2021/12/14 13:10:19;;;;;;;11.10;9.10;;;5.50;99.90;;;;;;4973571;28;20038;-80
2021/12/14 13:12:53;;;;;;;11.17;8.57;;;5.50;99.90;;;;;;4972606;28;20047;-80
2021/12/14 13:15:29;;;;;;;10.18;7.88;;;5.50;99.90;;;;;;4973524;28;20035;-81
2021/12/14 13:19:00;;;;;;;11.43;9.17;;;5.60;99.90;;;;;;4955473;28;20035;-81
2021/12/14 13:21:25;;;;;;;13.60;10.87;;;5.50;99.90;;;;;;4970240;28;20062;-80
2021/12/14 13:24:23;;;;;;;14.20;11.37;;;5.50;99.90;;;;;;4973440;28;20937;-80
2021/12/14 13:26:57;;;;;;;19.37;11.57;;;5.40;99.90;;;;;;4969691;28;20494;-80
2021/12/14 13:29:44;;;;;;;14.85;10.07;;;5.50;99.90;;;;;;4972970;28;20046;-81
2021/12/14 13:32:15;;;;;;;12.00;9.50;;;5.50;99.90;;;;;;4973101;28;20027;-80
2021/12/14 13:34:41;;;;;;;15.13;9.80;;;5.50;99.90;;;;;;4972905;28;20070;-80
2021/12/14 13:37:08;;;;;;;12.37;8.97;;;5.50;99.90;;;;;;4973088;28;20030;-80
2021/12/14 13:39:39;;;;;;;10.80;8.43;;;5.50;99.90;;;;;;4973040;28;20100;-80
2021/12/14 13:42:07;;;;;;;11.50;8.50;;;5.50;99.90;;;;;;4955658;28;20360;-80
2021/12/14 13:44:39;;;;;;;11.20;8.60;;;5.60;99.90;;;;;;4972819;28;20033;-80
2021/12/14 13:47:10;;;;;;;11.03;8.27;;;5.50;99.90;;;;;;4968651;28;20862;-80
2021/12/14 13:49:37;;;;;;;11.10;8.10;;;5.50;99.90;;;;;;4948808;28;20088;-80
2021/12/14 13:52:06;;;;;;;12.07;7.80;;;5.50;99.90;;;;;;4952081;28;20487;-80
2021/12/14 13:55:04;;;;;;;11.23;8.43;;;5.50;99.90;;;;;;4970867;28;20414;-81
2021/12/14 13:57:29;;;;;;;11.77;8.30;;;5.60;99.90;;;;;;4969042;28;20042;-80
2021/12/14 13:59:55;;;;;;;11.57;8.43;;;5.50;99.90;;;;;;4969206;28;20047;-80
2021/12/14 14:02:21;;;;;;;10.73;8.03;;;5.40;99.90;;;;;;4951794;28;20034;-80
2021/12/14 14:04:47;;;;;;;10.27;8.07;;;5.40;99.90;;;;;;4969494;28;20707;-81